createdAt,value
2022-12-15T00:02:19.739Z,-2.00
2022-12-15T00:05:06.233Z,-2.00
2022-12-15T00:07:53.102Z,-2.10
2022-12-15T00:10:38.740Z,-2.10
2022-12-15T00:13:32.317Z,-2.10
2022-12-15T00:16:18.237Z,-2.00
2022-12-15T00:19:04.299Z,-2.00
2022-12-15T00:21:50.128Z,-2.00
2022-12-15T00:24:35.917Z,-2.00
2022-12-15T00:27:21.762Z,-2.10
2022-12-15T00:30:07.341Z,-2.20
2022-12-15T00:32:53.022Z,-2.10
2022-12-15T00:35:38.557Z,-2.10
2022-12-15T00:38:28.886Z,-2.10
2022-12-15T00:40:59.567Z,-2.00
2022-12-15T00:43:31.357Z,-1.90
2022-12-15T00:46:17.516Z,-2.00
2022-12-15T00:48:44.906Z,-2.10
2022-12-15T00:51:12.721Z,-2.10
2022-12-15T00:53:59.171Z,-2.20
2022-12-15T00:56:44.863Z,-2.20
2022-12-15T00:59:30.644Z,-2.10
2022-12-15T01:02:16.517Z,-2.10
2022-12-15T01:05:01.916Z,-2.10
2022-12-15T01:07:49.740Z,-2.20
2022-12-15T01:10:36.948Z,-2.10
2022-12-15T01:13:23.353Z,-2.10
2022-12-15T01:16:09.181Z,-2.10
2022-12-15T01:18:54.947Z,-2.10
2022-12-15T01:21:24.744Z,-2.10
2022-12-15T01:23:53.179Z,-2.10
2022-12-15T01:26:20.354Z,-2.10
2022-12-15T01:28:47.381Z,-2.10
2022-12-15T01:31:14.699Z,-2.20
2022-12-15T01:33:43.901Z,-2.20
2022-12-15T01:36:11.686Z,-2.20
2022-12-15T01:38:38.937Z,-2.20
2022-12-15T01:41:10.343Z,-2.10
2022-12-15T01:43:39.430Z,-2.00
2022-12-15T01:46:08.922Z,-2.10
2022-12-15T01:48:47.681Z,-2.10
2022-12-15T01:51:45.005Z,-2.10
2022-12-15T01:54:35.479Z,-2.10
2022-12-15T01:57:11.926Z,-2.10
2022-12-15T01:59:50.815Z,-2.10
2022-12-15T02:02:21.517Z,-2.10
2022-12-15T02:04:51.997Z,-2.10
2022-12-15T02:07:19.582Z,-2.20
2022-12-15T02:09:48.719Z,-2.20
2022-12-15T02:12:36.505Z,-2.20
2022-12-15T02:15:12.700Z,-2.20
2022-12-15T02:17:50.737Z,-2.20
2022-12-15T02:20:49.324Z,-2.20
2022-12-15T02:23:45.763Z,-2.20
2022-12-15T02:26:47.184Z,-2.20
2022-12-15T02:29:33.100Z,-2.20
2022-12-15T02:32:15.046Z,-2.10
2022-12-15T02:34:53.089Z,-2.10
2022-12-15T02:37:36.438Z,-2.10
2022-12-15T02:40:06.145Z,-2.20
2022-12-15T02:42:35.660Z,-2.20
2022-12-15T02:45:36.570Z,-2.10
2022-12-15T02:48:29.697Z,-2.00
2022-12-15T02:51:14.928Z,-2.10
2022-12-15T02:54:05.384Z,-2.10
2022-12-15T02:56:46.677Z,-2.10
2022-12-15T02:59:14.865Z,-2.10
2022-12-15T03:01:52.105Z,-2.10
2022-12-15T03:04:20.273Z,-2.10
2022-12-15T03:07:00.886Z,-2.00
2022-12-15T03:09:28.669Z,-2.00
2022-12-15T03:11:55.696Z,-2.10
2022-12-15T03:14:22.620Z,-2.10
2022-12-15T03:16:49.614Z,-2.10
2022-12-15T03:19:16.600Z,-2.00
2022-12-15T03:21:43.572Z,-2.00
2022-12-15T03:24:10.625Z,-2.00
2022-12-15T03:26:37.566Z,-2.10
2022-12-15T03:29:04.675Z,-2.00
2022-12-15T03:31:31.729Z,-2.00
2022-12-15T03:33:59.200Z,-2.10
2022-12-15T03:36:26.296Z,-2.00
2022-12-15T03:38:53.285Z,-2.00
2022-12-15T03:41:20.300Z,-1.90
2022-12-15T03:43:49.743Z,-1.90
2022-12-15T03:46:17.355Z,-1.90
2022-12-15T03:48:44.409Z,-1.90
2022-12-15T03:51:11.721Z,-1.90
2022-12-15T03:53:38.967Z,-1.90
2022-12-15T03:56:06.367Z,-1.90
2022-12-15T03:58:33.455Z,-1.80
2022-12-15T04:01:13.449Z,-1.90
2022-12-15T04:03:40.698Z,-1.80
2022-12-15T04:06:07.726Z,-1.80
2022-12-15T04:08:34.647Z,-1.80
2022-12-15T04:11:01.636Z,-1.80
2022-12-15T04:13:29.165Z,-1.80
2022-12-15T04:15:56.492Z,-1.80
2022-12-15T04:18:23.568Z,-1.80
2022-12-15T04:20:50.599Z,-1.70
2022-12-15T04:23:17.543Z,-1.80
2022-12-15T04:26:02.945Z,-1.70
2022-12-15T04:28:48.706Z,-1.70
2022-12-15T04:31:45.131Z,-1.70
2022-12-15T04:34:38.730Z,-1.70
2022-12-15T04:37:28.172Z,-1.60
2022-12-15T04:40:15.109Z,-1.70
2022-12-15T04:43:04.732Z,-1.60
2022-12-15T04:45:50.572Z,-1.70
2022-12-15T04:48:36.143Z,-1.60
2022-12-15T04:51:23.853Z,-1.60
2022-12-15T04:54:09.838Z,-1.60
2022-12-15T04:56:55.665Z,-1.60
2022-12-15T04:59:41.462Z,-1.60
2022-12-15T05:02:27.346Z,-1.50
2022-12-15T05:05:13.024Z,-1.50
2022-12-15T05:07:58.901Z,-1.40
2022-12-15T05:10:44.616Z,-1.40
2022-12-15T05:13:30.737Z,-1.40
2022-12-15T05:16:16.590Z,-1.30
2022-12-15T05:19:02.184Z,-1.30
2022-12-15T05:21:47.632Z,-1.20
2022-12-15T05:24:33.283Z,-1.20
2022-12-15T05:27:18.733Z,-1.20
2022-12-15T05:30:04.526Z,-1.20
2022-12-15T05:32:33.231Z,-1.20
2022-12-15T05:35:01.359Z,-1.20
2022-12-15T05:37:28.316Z,-1.20
2022-12-15T05:39:55.274Z,-1.20
2022-12-15T05:42:22.288Z,-1.20
2022-12-15T05:44:49.262Z,-1.20
2022-12-15T05:47:16.804Z,-1.20
2022-12-15T05:49:43.830Z,-1.20
2022-12-15T05:52:10.742Z,-1.20
2022-12-15T05:54:37.785Z,-1.20
2022-12-15T05:57:04.877Z,-1.20
2022-12-15T05:59:31.819Z,-1.10
2022-12-15T06:01:58.944Z,-1.10
2022-12-15T06:04:26.089Z,-1.20
2022-12-15T06:06:53.104Z,-1.10
2022-12-15T06:09:20.166Z,-1.10
2022-12-15T06:11:47.127Z,-1.10
2022-12-15T06:14:14.162Z,-1.10
2022-12-15T06:16:51.106Z,-1.10
2022-12-15T06:19:20.225Z,-1.00
2022-12-15T06:21:47.773Z,-1.00
2022-12-15T06:24:15.234Z,-1.00
2022-12-15T06:26:42.183Z,-1.00
2022-12-15T06:29:11.164Z,-1.00
2022-12-15T06:31:39.091Z,-1.00
2022-12-15T06:34:08.419Z,-1.00
2022-12-15T06:36:36.310Z,-1.00
2022-12-15T06:39:05.452Z,-0.90
2022-12-15T06:41:33.051Z,-0.90
2022-12-15T06:44:00.740Z,-1.00
2022-12-15T06:46:30.322Z,-1.00
2022-12-15T06:48:58.191Z,-1.00
2022-12-15T06:51:28.433Z,-1.00
2022-12-15T06:53:56.326Z,-1.00
2022-12-15T06:56:36.240Z,-1.00
2022-12-15T06:59:05.362Z,-1.00
2022-12-15T07:01:33.079Z,-0.90
2022-12-15T07:04:01.672Z,-0.90
2022-12-15T07:06:32.037Z,-0.90
2022-12-15T07:08:59.128Z,-0.90
2022-12-15T07:11:26.016Z,-0.90
2022-12-15T07:13:53.671Z,-0.80
2022-12-15T07:16:22.795Z,-0.80
2022-12-15T07:18:50.133Z,-0.80
2022-12-15T07:21:17.527Z,-0.80
2022-12-15T07:24:01.457Z,-0.70
2022-12-15T07:26:28.985Z,-0.70
2022-12-15T07:28:56.323Z,-0.70
2022-12-15T07:31:24.102Z,-0.70
2022-12-15T07:33:52.747Z,-0.70
2022-12-15T07:36:20.160Z,-0.70
2022-12-15T07:38:50.442Z,-0.60
2022-12-15T07:41:20.135Z,-0.60
2022-12-15T07:43:48.040Z,-0.60
2022-12-15T07:46:16.013Z,-0.60
2022-12-15T07:48:43.175Z,-0.60
2022-12-15T07:51:17.365Z,-0.60
2022-12-15T07:53:47.052Z,-0.60
2022-12-15T07:56:13.990Z,-0.60
2022-12-15T07:58:41.201Z,-0.60
2022-12-15T08:01:10.726Z,-0.50
2022-12-15T08:03:38.437Z,-0.50
2022-12-15T08:06:11.358Z,-0.50
2022-12-15T08:08:39.080Z,-0.40
2022-12-15T08:11:07.769Z,-0.40
2022-12-15T08:14:02.004Z,-0.50
2022-12-15T08:16:22.831Z,-0.40
2022-12-15T08:18:50.013Z,-0.40
2022-12-15T08:21:16.954Z,-0.50
2022-12-15T08:23:44.015Z,-0.40
2022-12-15T08:26:14.053Z,-0.50
2022-12-15T08:28:41.766Z,-0.40
2022-12-15T08:31:11.931Z,-0.40
2022-12-15T08:33:39.585Z,-0.40
2022-12-15T08:36:09.230Z,-0.40
2022-12-15T08:38:41.334Z,-0.50
2022-12-15T08:41:10.259Z,-0.50
2022-12-15T08:43:42.500Z,-0.50
2022-12-15T08:46:14.696Z,-0.40
2022-12-15T08:48:41.846Z,-0.50
2022-12-15T08:51:10.014Z,-0.40
2022-12-15T08:53:37.341Z,-0.40
2022-12-15T08:56:09.240Z,-0.40
2022-12-15T08:58:36.717Z,-0.40
2022-12-15T09:01:09.784Z,-0.40
2022-12-15T09:03:37.570Z,-0.50
2022-12-15T09:06:13.540Z,-0.50
2022-12-15T09:08:41.021Z,-0.40
2022-12-15T09:11:08.213Z,-0.40
2022-12-15T09:13:36.110Z,-0.50
2022-12-15T09:16:10.277Z,-0.50
2022-12-15T09:18:38.329Z,-0.50
2022-12-15T09:21:07.845Z,-0.50
2022-12-15T09:23:36.454Z,-0.40
2022-12-15T09:26:09.685Z,-0.50
2022-12-15T09:28:40.249Z,-0.40
2022-12-15T09:31:13.276Z,-0.50
2022-12-15T09:33:41.948Z,-0.60
2022-12-15T09:36:10.700Z,-0.60
2022-12-15T09:38:39.837Z,-0.60
2022-12-15T09:41:31.892Z,-0.50
2022-12-15T09:44:11.265Z,-0.60
2022-12-15T09:47:12.332Z,-0.60
2022-12-15T09:50:01.483Z,-0.60
2022-12-15T09:52:36.060Z,-0.60
2022-12-15T09:55:15.648Z,-0.60
2022-12-15T09:57:58.132Z,-0.60
2022-12-15T10:00:44.580Z,-0.60
2022-12-15T10:03:50.894Z,-0.50
2022-12-15T10:06:32.942Z,-0.50
2022-12-15T10:09:04.145Z,-0.50
2022-12-15T10:12:13.279Z,-0.40
2022-12-15T10:14:55.240Z,-0.50
2022-12-15T10:17:28.355Z,-0.50
2022-12-15T10:20:07.938Z,-0.40
2022-12-15T10:22:37.578Z,-0.40
2022-12-15T10:25:30.422Z,-0.40
2022-12-15T10:28:16.082Z,-0.40
2022-12-15T10:31:07.707Z,-0.40
2022-12-15T10:33:37.858Z,-0.40
2022-12-15T10:36:13.152Z,-0.40
2022-12-15T10:41:34.987Z,-0.40
2022-12-15T10:44:02.820Z,-0.40
2022-12-15T10:46:32.321Z,-0.40
2022-12-15T10:49:23.715Z,-0.40
2022-12-15T10:51:56.216Z,-0.40
2022-12-15T10:54:26.839Z,-0.40
2022-12-15T10:56:56.433Z,-0.40
2022-12-15T10:59:23.548Z,-0.40
2022-12-15T11:01:51.401Z,-0.30
2022-12-15T11:04:32.356Z,-0.30
2022-12-15T11:07:01.989Z,-0.30
2022-12-15T11:09:37.419Z,-0.20
2022-12-15T11:12:42.107Z,-0.30
2022-12-15T11:15:28.714Z,-0.20
2022-12-15T11:18:10.841Z,-0.20
2022-12-15T11:20:42.215Z,-0.20
2022-12-15T11:23:23.935Z,-0.20
2022-12-15T11:26:16.640Z,-0.20
2022-12-15T11:28:49.908Z,-0.20
2022-12-15T11:31:31.804Z,-0.20
2022-12-15T11:33:59.018Z,0.40
2022-12-15T11:36:50.229Z,0.70
2022-12-15T11:39:54.797Z,0.40
2022-12-15T11:42:30.246Z,0.10
2022-12-15T11:45:15.012Z,-0.10
2022-12-15T11:47:52.422Z,-0.10
2022-12-15T11:50:29.430Z,-0.20
2022-12-15T11:53:23.359Z,-0.20
2022-12-15T11:56:29.985Z,-0.20
2022-12-15T11:59:09.283Z,-0.20
2022-12-15T12:02:03.205Z,-0.20
2022-12-15T12:04:37.781Z,-0.20
2022-12-15T12:10:29.531Z,-0.30
2022-12-15T12:13:14.440Z,-0.20
2022-12-15T12:15:56.495Z,-0.20
2022-12-15T12:18:33.107Z,-0.20
2022-12-15T12:21:10.676Z,-0.20
2022-12-15T12:23:48.508Z,-0.20
2022-12-15T12:26:45.678Z,-0.30
2022-12-15T12:29:45.125Z,-0.30
2022-12-15T12:32:40.597Z,-0.30
2022-12-15T12:35:30.945Z,-0.20
2022-12-15T12:38:05.557Z,-0.20
2022-12-15T12:41:04.428Z,-0.20
2022-12-15T12:43:39.479Z,-0.20
2022-12-15T12:46:18.416Z,-0.20
2022-12-15T12:49:06.580Z,-0.20
2022-12-15T12:51:40.497Z,-0.30
2022-12-15T12:54:36.670Z,-0.30
2022-12-15T12:57:12.934Z,-0.30
2022-12-15T12:59:49.225Z,-0.30
2022-12-15T13:02:22.437Z,-0.30
2022-12-15T13:05:00.532Z,-0.30
2022-12-15T13:07:30.822Z,-0.30
2022-12-15T13:10:16.879Z,-0.30
2022-12-15T13:15:45.740Z,-0.30
2022-12-15T13:18:22.573Z,-0.30
2022-12-15T13:20:54.326Z,-0.20
2022-12-15T13:23:24.341Z,-0.20
2022-12-15T13:25:57.032Z,-0.20
2022-12-15T13:28:36.075Z,-0.20
2022-12-15T13:31:27.599Z,-0.20
2022-12-15T13:34:14.233Z,-0.10
2022-12-15T13:36:41.256Z,-0.10
2022-12-15T13:39:17.192Z,-0.10
2022-12-15T13:42:23.785Z,-0.20
2022-12-15T13:44:48.625Z,-0.20
2022-12-15T13:47:23.589Z,-0.20
2022-12-15T13:50:06.946Z,-0.20
2022-12-15T13:55:37.308Z,-0.20
2022-12-15T13:58:10.196Z,-0.20
2022-12-15T14:00:39.685Z,-0.30
2022-12-15T14:03:11.606Z,-0.30
2022-12-15T14:05:41.469Z,-0.30
2022-12-15T14:08:14.425Z,-0.40
2022-12-15T14:11:22.367Z,-0.40
2022-12-15T14:13:54.279Z,-0.30
2022-12-15T14:16:23.155Z,-0.30
2022-12-15T14:19:13.929Z,-0.30
2022-12-15T14:21:48.193Z,-0.30
2022-12-15T14:24:38.646Z,-0.30
2022-12-15T14:27:06.695Z,-0.30
2022-12-15T14:29:33.661Z,-0.30
2022-12-15T14:32:01.114Z,-0.30
2022-12-15T14:34:38.950Z,-0.30
2022-12-15T14:37:15.666Z,-0.30
2022-12-15T14:39:46.223Z,-0.30
2022-12-15T14:42:23.833Z,-0.30
2022-12-15T14:44:57.390Z,-0.30
2022-12-15T14:47:28.483Z,-0.30
2022-12-15T14:50:01.232Z,-0.20
2022-12-15T14:52:29.771Z,-0.30
2022-12-15T14:54:59.406Z,-0.20
2022-12-15T14:57:29.469Z,-0.20
2022-12-15T14:59:56.496Z,-0.20
2022-12-15T15:02:29.723Z,-0.20
2022-12-15T15:03:05.230Z,-0.30
2022-12-15T15:03:10.363Z,-0.40
2022-12-15T15:03:11.017Z,-0.20
2022-12-15T15:03:12.026Z,-0.30
2022-12-15T15:05:07.575Z,-0.30
2022-12-15T15:07:39.298Z,-0.30
2022-12-15T15:10:25.331Z,-0.30
2022-12-15T15:12:53.205Z,-0.20
2022-12-15T15:15:24.403Z,-0.20
2022-12-15T15:17:56.068Z,-0.30
2022-12-15T15:20:30.199Z,-0.30
2022-12-15T15:23:03.389Z,-0.30
2022-12-15T15:25:39.274Z,-0.30
2022-12-15T15:28:21.762Z,-0.30
2022-12-15T15:30:56.579Z,-0.40
2022-12-15T15:33:25.189Z,-0.30
2022-12-15T15:36:03.149Z,-0.30
2022-12-15T15:38:36.102Z,-0.30
2022-12-15T15:41:18.162Z,-0.30
2022-12-15T15:43:45.394Z,-0.40
2022-12-15T15:46:14.601Z,-0.40
2022-12-15T15:49:08.602Z,-0.40
2022-12-15T15:51:36.217Z,-0.40
2022-12-15T15:54:07.170Z,-0.30
2022-12-15T15:56:35.191Z,-0.30
2022-12-15T15:59:22.552Z,-0.40
2022-12-15T16:01:59.334Z,-0.40
2022-12-15T16:04:26.643Z,-0.40
2022-12-15T16:06:53.864Z,-0.30
2022-12-15T16:09:21.196Z,-0.30
2022-12-15T16:11:48.332Z,-0.30
2022-12-15T16:14:17.686Z,-0.30
2022-12-15T16:16:44.898Z,-0.30
2022-12-15T16:19:14.883Z,-0.30
2022-12-15T16:21:42.943Z,-0.30
2022-12-15T16:24:18.979Z,-0.30
2022-12-15T16:26:49.977Z,-0.20
2022-12-15T16:29:20.053Z,-0.20
2022-12-15T16:31:48.060Z,-0.20
2022-12-15T16:34:20.586Z,-0.20
2022-12-15T16:36:47.958Z,-0.20
2022-12-15T16:39:34.977Z,-0.20
2022-12-15T16:42:03.169Z,-0.10
2022-12-15T16:44:30.449Z,-0.20
2022-12-15T16:46:58.971Z,-0.20
2022-12-15T16:49:27.885Z,-0.30
2022-12-15T16:51:55.652Z,-0.30
2022-12-15T16:54:25.590Z,-0.30
2022-12-15T16:56:54.237Z,-0.30
2022-12-15T16:59:39.167Z,-0.40
2022-12-15T17:02:27.996Z,-0.40
2022-12-15T17:04:55.688Z,-0.40
2022-12-15T17:07:24.882Z,-0.40
2022-12-15T17:09:52.140Z,-0.40
2022-12-15T17:12:19.288Z,-0.40
2022-12-15T17:14:46.698Z,-0.40
2022-12-15T17:17:19.370Z,-0.30
2022-12-15T17:22:34.180Z,-0.40
2022-12-15T17:25:01.734Z,-0.40
2022-12-15T17:27:30.368Z,-0.40
2022-12-15T17:29:59.303Z,-0.30
2022-12-15T17:32:26.889Z,-0.30
2022-12-15T17:34:53.950Z,-0.30
2022-12-15T17:37:21.038Z,-0.30
2022-12-15T17:39:51.435Z,-0.30
2022-12-15T17:42:20.427Z,-0.30
2022-12-15T17:44:48.827Z,-0.30
2022-12-15T17:47:17.147Z,-0.30
2022-12-15T17:49:44.672Z,-0.40
2022-12-15T17:52:28.446Z,-0.30
2022-12-15T17:54:56.166Z,-0.30
2022-12-15T17:57:23.128Z,-0.40
2022-12-15T17:59:50.150Z,-0.40
2022-12-15T18:02:17.293Z,-0.40
2022-12-15T18:04:44.809Z,-0.40
2022-12-15T18:07:20.993Z,-0.40
2022-12-15T18:09:48.900Z,-0.50
2022-12-15T18:12:22.465Z,-0.50
2022-12-15T18:14:49.744Z,-0.50
2022-12-15T18:17:16.776Z,-0.50
2022-12-15T18:19:43.832Z,-0.60
2022-12-15T18:22:28.708Z,-0.50
2022-12-15T18:24:55.677Z,-0.60
2022-12-15T18:27:28.911Z,-0.60
2022-12-15T18:29:59.489Z,-0.60
2022-12-15T18:32:29.878Z,-0.50
2022-12-15T18:34:56.973Z,-0.50
2022-12-15T18:37:28.241Z,-0.50
2022-12-15T18:39:59.477Z,-0.50
2022-12-15T18:42:31.030Z,-0.60
2022-12-15T18:45:00.414Z,-0.60
2022-12-15T18:47:27.812Z,-0.60
2022-12-15T18:49:54.974Z,-0.60
2022-12-15T18:52:27.564Z,-0.60
2022-12-15T18:54:55.945Z,-0.60
2022-12-15T18:57:26.715Z,-0.60
2022-12-15T18:59:59.915Z,-0.50
2022-12-15T19:02:27.112Z,-0.60
2022-12-15T19:04:54.113Z,-0.60
2022-12-15T19:07:21.168Z,-0.60
2022-12-15T19:09:49.545Z,-0.60
2022-12-15T19:12:20.368Z,-0.60
2022-12-15T19:14:50.274Z,-0.70
2022-12-15T19:17:40.271Z,-0.70
2022-12-15T19:20:39.934Z,-0.70
2022-12-15T19:23:07.471Z,-0.80
2022-12-15T19:25:35.457Z,-0.80
2022-12-15T19:28:02.627Z,-0.80
2022-12-15T19:30:38.458Z,-0.80
2022-12-15T19:33:07.930Z,-0.80
2022-12-15T19:35:35.988Z,-0.80
2022-12-15T19:38:04.767Z,-0.80
2022-12-15T19:40:33.978Z,-0.80
2022-12-15T19:43:02.279Z,-0.80
2022-12-15T19:45:31.581Z,-0.80
2022-12-15T19:47:59.078Z,-0.80
2022-12-15T19:50:30.149Z,-0.80
2022-12-15T19:53:00.983Z,-0.80
2022-12-15T19:55:35.968Z,-0.90
2022-12-15T19:58:23.698Z,-0.90
2022-12-15T20:00:54.876Z,-1.00
2022-12-15T20:03:22.365Z,-1.00
2022-12-15T20:05:52.021Z,-0.90
2022-12-15T20:08:22.548Z,-0.90
2022-12-15T20:10:51.083Z,-0.90
2022-12-15T20:13:18.875Z,-1.00
2022-12-15T20:15:46.390Z,-0.90
2022-12-15T20:18:14.120Z,-0.90
2022-12-15T20:20:43.592Z,-1.00
2022-12-15T20:23:20.991Z,-1.00
2022-12-15T20:25:48.354Z,-1.00
2022-12-15T20:28:27.214Z,-1.00
2022-12-15T20:30:56.278Z,-1.00
2022-12-15T20:33:23.896Z,-1.10
2022-12-15T20:35:51.807Z,-1.00
2022-12-15T20:38:26.833Z,-1.00
2022-12-15T20:40:55.585Z,-1.10
2022-12-15T20:43:23.341Z,-1.10
2022-12-15T20:45:58.197Z,-1.10
2022-12-15T20:48:27.122Z,-1.20
2022-12-15T20:50:54.428Z,-1.20
2022-12-15T20:53:24.800Z,-1.10
2022-12-15T20:55:53.599Z,-1.20
2022-12-15T20:58:21.095Z,-1.20
2022-12-15T21:00:49.975Z,-1.20
2022-12-15T21:03:32.950Z,-1.20
2022-12-15T21:06:00.661Z,-1.20
2022-12-15T21:08:30.505Z,-1.20
2022-12-15T21:11:18.608Z,-1.20
2022-12-15T21:13:47.969Z,-1.20
2022-12-15T21:16:26.801Z,-1.20
2022-12-15T21:19:19.104Z,-1.30
2022-12-15T21:21:47.396Z,-1.30
2022-12-15T21:24:19.270Z,-1.30
2022-12-15T21:26:47.083Z,-1.30
2022-12-15T21:29:16.439Z,-1.30
2022-12-15T21:31:43.747Z,-1.30
2022-12-15T21:34:11.193Z,-1.30
2022-12-15T21:36:40.408Z,-1.30
2022-12-15T21:39:11.737Z,-1.30
2022-12-15T21:41:44.115Z,-1.30
2022-12-15T21:44:13.947Z,-1.40
2022-12-15T21:46:41.877Z,-1.30
2022-12-15T21:49:18.316Z,-1.30
2022-12-15T21:51:51.985Z,-1.30
2022-12-15T21:54:31.220Z,-1.40
2022-12-15T21:57:00.030Z,-1.40
2022-12-15T21:59:30.192Z,-1.40
2022-12-15T22:01:57.708Z,-1.40
2022-12-15T22:04:30.497Z,-1.40
2022-12-15T22:06:57.645Z,-1.40
2022-12-15T22:09:24.686Z,-1.40
2022-12-15T22:11:53.856Z,-1.40
2022-12-15T22:14:33.314Z,-1.40
2022-12-15T22:17:16.078Z,-1.40
2022-12-15T22:19:43.325Z,-1.40
2022-12-15T22:22:10.295Z,-1.40
2022-12-15T22:24:37.413Z,-1.40
2022-12-15T22:27:04.473Z,-1.40
2022-12-15T22:29:31.773Z,-1.40
2022-12-15T22:31:58.719Z,-1.40
2022-12-15T22:34:27.312Z,-1.40
2022-12-15T22:36:55.046Z,-1.40
2022-12-15T22:39:22.174Z,-1.40
2022-12-15T22:41:51.319Z,-1.30
2022-12-15T22:44:28.124Z,-1.30
2022-12-15T22:46:58.059Z,-1.30
2022-12-15T22:49:35.557Z,-1.40
2022-12-15T22:52:03.323Z,-1.40
2022-12-15T22:54:32.307Z,-1.40
2022-12-15T22:57:05.397Z,-1.40
2022-12-15T22:59:44.036Z,-1.50
2022-12-15T23:02:11.628Z,-1.50
2022-12-15T23:04:38.732Z,-1.50
2022-12-15T23:07:10.283Z,-1.50
2022-12-15T23:09:37.491Z,-1.50
2022-12-15T23:12:04.687Z,-1.50
2022-12-15T23:14:50.614Z,-1.50
2022-12-15T23:17:18.607Z,-1.50
2022-12-15T23:19:46.602Z,-1.50
2022-12-15T23:22:14.173Z,-1.50
2022-12-15T23:24:41.770Z,-1.50
2022-12-15T23:27:12.454Z,-1.50
2022-12-15T23:29:39.497Z,-1.50
2022-12-15T23:32:06.624Z,-1.60
2022-12-15T23:34:33.648Z,-1.50
2022-12-15T23:37:01.116Z,-1.50
2022-12-15T23:39:28.442Z,-1.50
2022-12-15T23:41:55.617Z,-1.50
2022-12-15T23:44:22.995Z,-1.50
2022-12-15T23:46:50.151Z,-1.50
2022-12-15T23:49:17.329Z,-1.50
2022-12-15T23:51:44.314Z,-1.50
2022-12-15T23:54:11.424Z,-1.50
2022-12-15T23:56:40.547Z,-1.50
2022-12-15T23:59:07.716Z,-1.60
